createdAt,value
2018-05-26T00:01:42.632Z,1.80
2018-05-26T00:04:10.174Z,1.93
2018-05-26T00:06:37.744Z,1.70
2018-05-26T00:09:05.265Z,1.40
2018-05-26T00:11:33.571Z,1.73
2018-05-26T00:14:01.107Z,1.63
2018-05-26T00:16:29.428Z,1.90
2018-05-26T00:18:56.943Z,2.00
2018-05-26T00:21:25.246Z,2.03
2018-05-26T00:23:52.778Z,1.83
2018-05-26T00:26:21.098Z,1.73
2018-05-26T00:28:48.626Z,1.70
2018-05-26T00:31:16.935Z,1.80
2018-05-26T00:33:44.474Z,1.50
2018-05-26T00:36:12.022Z,1.63
2018-05-26T00:38:40.302Z,1.60
2018-05-26T00:41:08.632Z,1.60
2018-05-26T00:43:36.158Z,1.93
2018-05-26T00:46:03.715Z,1.67
2018-05-26T00:48:31.246Z,1.40
2018-05-26T00:50:59.558Z,2.00
2018-05-26T00:53:27.083Z,1.80
2018-05-26T22:00:17.114Z,3.30
2018-05-26T22:02:45.663Z,3.30
2018-05-26T22:05:13.237Z,3.27
2018-05-26T22:07:40.772Z,3.43
2018-05-26T22:10:08.339Z,3.77
2018-05-26T22:12:36.640Z,3.13
2018-05-26T22:15:04.203Z,3.10
2018-05-26T22:17:31.753Z,3.40
2018-05-26T22:19:59.302Z,3.27
2018-05-26T22:22:27.629Z,3.57
2018-05-26T22:24:55.197Z,3.73
2018-05-26T22:27:22.729Z,3.20
2018-05-26T22:29:50.289Z,3.20
2018-05-26T22:32:17.835Z,3.73
2018-05-26T22:34:45.426Z,3.50
2018-05-26T22:37:12.979Z,3.10
2018-05-26T22:39:40.540Z,3.20
2018-05-26T22:42:08.080Z,2.83
2018-05-26T22:44:35.647Z,3.13
2018-05-26T22:47:03.192Z,3.20
2018-05-26T22:49:30.779Z,3.07
2018-05-26T22:51:58.352Z,4.03
2018-05-26T22:54:25.884Z,3.13
2018-05-26T22:56:53.447Z,3.10
2018-05-26T22:59:21.014Z,3.20
2018-05-26T23:01:48.554Z,3.30
2018-05-26T23:04:16.130Z,3.43
2018-05-26T23:06:43.683Z,3.63
2018-05-26T23:09:11.219Z,3.53
2018-05-26T23:11:39.561Z,3.53
2018-05-26T23:14:07.095Z,4.17
2018-05-26T23:16:34.638Z,2.87
2018-05-26T23:19:02.173Z,3.20
2018-05-26T23:21:30.483Z,3.23
2018-05-26T23:23:57.999Z,3.77
2018-05-26T23:26:25.548Z,3.33
2018-05-26T23:28:53.072Z,3.30
2018-05-26T23:31:20.628Z,3.50
2018-05-26T23:33:48.159Z,3.67
2018-05-26T23:36:16.464Z,3.20
2018-05-26T23:38:43.996Z,3.03
2018-05-26T23:41:12.331Z,2.80
2018-05-26T23:43:39.885Z,2.90
2018-05-26T23:46:07.447Z,2.47
2018-05-26T23:48:35.016Z,3.10
2018-05-26T23:51:02.536Z,3.40
2018-05-26T23:53:30.067Z,2.83
2018-05-26T23:55:58.404Z,3.47
2018-05-26T23:58:25.933Z,3.37
